createdAt,value
2018-07-14T03:45:11.155Z,15.10
2018-07-14T03:47:40.059Z,15.00
2018-07-14T03:50:08.713Z,15.00
2018-07-14T03:52:37.293Z,15.00
2018-07-14T03:55:07.484Z,15.00
2018-07-14T03:57:36.081Z,15.00
2018-07-14T04:00:05.389Z,15.10
2018-07-14T04:02:34.507Z,15.10
2018-07-14T04:05:04.235Z,15.00
2018-07-14T04:07:33.037Z,15.10
2018-07-14T04:10:02.370Z,15.10
2018-07-14T04:12:31.664Z,15.10
2018-07-14T04:15:00.420Z,15.10
2018-07-14T04:17:29.085Z,15.10
2018-07-14T04:19:58.678Z,15.10
2018-07-14T04:22:28.401Z,15.20
2018-07-14T04:24:57.629Z,15.10
2018-07-14T04:27:27.707Z,15.10
2018-07-14T04:29:56.384Z,15.20
2018-07-14T04:32:25.093Z,15.20
2018-07-14T04:34:56.923Z,15.20
2018-07-14T04:37:25.989Z,15.30
2018-07-14T04:39:54.682Z,15.30
2018-07-14T04:42:23.455Z,15.30
2018-07-14T04:44:52.197Z,15.30
2018-07-14T04:47:20.866Z,15.40
2018-07-14T04:49:49.501Z,15.40
2018-07-14T04:52:18.180Z,15.40
2018-07-14T04:54:46.891Z,15.50
2018-07-14T04:57:15.420Z,15.50
2018-07-14T04:59:44.206Z,15.60
2018-07-14T05:02:12.783Z,15.60
2018-07-14T05:04:41.420Z,15.60
2018-07-14T05:13:05.026Z,15.80
2018-07-14T05:15:35.866Z,15.80
2018-07-14T05:18:04.689Z,15.90
2018-07-14T05:20:33.295Z,15.90
2018-07-14T05:23:03.405Z,16.00
2018-07-14T05:42:34.203Z,16.20
2018-07-14T05:47:53.221Z,16.30
2018-07-14T05:50:22.280Z,16.30
2018-07-14T05:52:52.790Z,16.40
2018-07-14T05:55:27.915Z,16.40
2018-07-14T05:57:57.048Z,16.50
2018-07-14T06:00:25.776Z,16.60
2018-07-14T06:02:54.395Z,16.70
2018-07-14T06:05:22.940Z,16.80
2018-07-14T06:07:51.966Z,16.90
2018-07-14T06:10:20.909Z,17.00
2018-07-14T06:12:57.976Z,17.10
2018-07-14T06:15:26.772Z,17.20
2018-07-14T06:17:56.276Z,17.30
2018-07-14T06:20:27.896Z,17.40
2018-07-14T06:40:02.457Z,18.20
2018-07-14T06:42:31.224Z,18.30
2018-07-14T06:45:00.855Z,18.50
2018-07-14T06:47:29.464Z,18.60
2018-07-14T06:53:09.949Z,18.70
2018-07-14T06:55:38.958Z,18.80
2018-07-14T06:58:07.737Z,18.90
2018-07-14T07:03:31.124Z,19.10
2018-07-14T07:05:59.764Z,19.20
2018-07-14T07:08:28.366Z,19.30
2018-07-14T07:10:57.293Z,19.40
2018-07-14T07:13:44.111Z,19.60
2018-07-14T07:16:13.603Z,19.70
2018-07-14T07:39:54.437Z,20.70
2018-07-14T07:42:30.965Z,20.70
2018-07-14T07:45:00.826Z,20.80
2018-07-14T07:47:30.289Z,20.90
2018-07-14T07:50:01.715Z,21.00
2018-07-14T07:52:31.798Z,21.10
2018-07-14T07:55:03.004Z,21.20
2018-07-14T07:57:31.596Z,21.40
2018-07-14T08:19:54.185Z,22.40
2018-07-14T08:22:24.133Z,22.60
2018-07-14T08:24:52.790Z,22.60
2018-07-14T08:27:22.649Z,22.80
2018-07-14T08:29:51.388Z,22.80
2018-07-14T08:32:20.208Z,22.90
2018-07-14T08:34:48.705Z,23.10
2018-07-14T08:37:31.087Z,23.10
2018-07-14T08:39:59.815Z,23.20
2018-07-14T08:42:35.014Z,23.30
2018-07-14T08:45:04.380Z,23.40
2018-07-14T09:02:12.972Z,24.20
2018-07-14T09:04:42.298Z,24.20
2018-07-14T09:10:08.889Z,24.20
2018-07-14T09:12:41.582Z,24.20
2018-07-14T09:15:10.095Z,24.30
2018-07-14T09:17:38.818Z,24.40
2018-07-14T09:20:09.646Z,24.50
2018-07-14T09:22:40.238Z,24.60
2018-07-14T09:25:09.731Z,24.70
2018-07-14T09:27:50.105Z,24.80
2018-07-14T09:30:22.829Z,24.90
2018-07-14T09:33:05.073Z,25.00
2018-07-14T09:35:35.007Z,25.20
2018-07-14T09:38:05.160Z,25.20
2018-07-14T09:40:33.990Z,25.30
2018-07-14T09:43:07.288Z,25.30
2018-07-14T09:45:35.900Z,25.40
2018-07-14T09:57:13.988Z,25.40
2018-07-14T09:59:42.948Z,25.50
2018-07-14T10:19:14.848Z,26.10
2018-07-14T10:21:43.560Z,26.30
2018-07-14T10:24:13.373Z,26.40
2018-07-14T10:26:41.976Z,26.50
2018-07-14T10:29:11.644Z,26.60
2018-07-14T10:31:40.220Z,26.70
2018-07-14T10:34:09.214Z,26.80
2018-07-14T10:36:59.302Z,26.80
2018-07-14T10:39:28.943Z,26.90
2018-07-14T10:41:57.639Z,27.10
2018-07-14T10:44:26.421Z,27.20
2018-07-14T10:46:55.832Z,27.20
2018-07-14T10:49:24.372Z,27.20
2018-07-14T11:08:58.119Z,27.80
2018-07-14T11:11:28.908Z,27.90
2018-07-14T11:13:57.449Z,28.00
2018-07-14T11:17:11.489Z,28.00
2018-07-14T11:19:46.336Z,28.00
2018-07-14T11:28:41.057Z,28.20
2018-07-14T11:31:19.268Z,28.40
2018-07-14T11:33:47.892Z,28.40
2018-07-14T11:36:29.860Z,28.40
2018-07-14T11:38:59.165Z,28.60
2018-07-14T11:59:12.936Z,29.50
2018-07-14T12:01:41.845Z,29.50
2018-07-14T12:04:21.959Z,29.40
2018-07-14T12:06:59.485Z,29.50
2018-07-14T12:09:29.890Z,29.60
2018-07-14T12:50:39.815Z,30.70
2018-07-14T14:12:57.860Z,30.10
2018-07-14T14:40:44.220Z,30.60
2018-07-14T15:04:14.261Z,31.70
2018-07-14T15:06:43.016Z,31.70
2018-07-14T15:14:55.564Z,31.70
2018-07-14T15:20:14.571Z,31.70
2018-07-14T15:22:43.899Z,31.70
2018-07-14T15:25:13.169Z,31.70
2018-07-14T15:27:48.441Z,31.80
2018-07-14T15:30:18.033Z,31.80
2018-07-14T15:32:46.577Z,31.80
2018-07-14T15:35:15.112Z,31.80
2018-07-14T15:37:48.312Z,31.80
2018-07-14T15:40:16.861Z,31.70
2018-07-14T15:42:46.412Z,31.60
2018-07-14T15:45:15.939Z,31.60
2018-07-14T15:47:45.616Z,31.60
2018-07-14T15:50:14.153Z,31.60
2018-07-14T15:52:44.735Z,31.50
2018-07-14T15:55:13.684Z,31.50
2018-07-14T15:57:43.904Z,31.60
2018-07-14T16:00:12.428Z,31.70
2018-07-14T16:02:40.898Z,31.70
2018-07-14T16:05:10.803Z,31.90
2018-07-14T16:07:45.836Z,32.00
2018-07-14T16:10:16.616Z,32.10
2018-07-14T16:12:45.248Z,32.10
2018-07-14T16:15:14.112Z,32.20
2018-07-14T16:17:43.133Z,32.30
2018-07-14T16:20:12.105Z,32.40
2018-07-14T16:22:41.419Z,32.40
2018-07-14T16:25:10.078Z,32.30
2018-07-14T16:27:45.078Z,32.50
2018-07-14T16:33:21.874Z,32.60
2018-07-14T16:36:11.755Z,32.70
2018-07-14T16:38:40.446Z,32.80
2018-07-14T16:41:09.017Z,32.90
2018-07-14T16:43:37.957Z,32.90
2018-07-14T16:49:03.800Z,33.00
2018-07-14T16:51:32.393Z,33.10
2018-07-14T16:54:07.216Z,33.10
2018-07-14T16:56:37.760Z,33.20
2018-07-14T16:59:06.112Z,33.30
2018-07-14T17:01:34.622Z,33.40
2018-07-14T17:04:14.844Z,33.60
2018-07-14T17:06:43.456Z,33.90
2018-07-14T17:09:12.062Z,33.90
2018-07-14T17:11:41.310Z,33.60
2018-07-14T17:14:10.001Z,33.10
2018-07-14T17:16:38.868Z,32.60
2018-07-14T17:19:09.101Z,32.30
2018-07-14T17:21:48.341Z,31.90
2018-07-14T17:30:18.950Z,30.90
2018-07-14T17:32:47.890Z,30.50
2018-07-14T17:35:18.286Z,30.30
2018-07-14T17:38:00.527Z,30.10
2018-07-14T17:40:28.978Z,29.80
2018-07-14T17:42:57.440Z,29.60
2018-07-14T17:45:31.816Z,29.40
2018-07-14T17:48:00.448Z,29.30
2018-07-14T17:50:30.091Z,29.10
2018-07-14T17:58:47.886Z,29.00
2018-07-14T18:01:16.736Z,28.80
2018-07-14T18:03:45.979Z,28.30
2018-07-14T18:09:10.071Z,28.00
2018-07-14T18:11:39.363Z,27.80
2018-07-14T18:14:09.056Z,27.70
2018-07-14T18:16:45.841Z,27.50
2018-07-14T18:19:14.537Z,27.30
2018-07-14T18:21:43.884Z,27.20
2018-07-14T18:24:12.463Z,27.10
2018-07-14T18:26:40.934Z,27.00
2018-07-14T18:29:09.896Z,26.90
2018-07-14T18:31:38.312Z,26.80
2018-07-14T18:34:06.850Z,26.70
2018-07-14T18:36:36.316Z,26.70
2018-07-14T18:39:06.893Z,26.60
2018-07-14T18:41:35.552Z,26.50
2018-07-14T18:44:04.037Z,26.40
2018-07-14T18:46:34.533Z,26.30
2018-07-14T18:49:04.262Z,26.20
2018-07-14T18:54:14.272Z,26.00
2018-07-14T18:56:43.777Z,25.90
2018-07-14T18:59:12.536Z,25.90
2018-07-14T19:01:40.917Z,25.80
2018-07-14T19:04:09.467Z,25.70
2018-07-14T19:06:47.821Z,25.60
2018-07-14T19:09:26.675Z,25.60
2018-07-14T19:11:55.813Z,25.40
2018-07-14T19:14:26.235Z,25.30
2018-07-14T19:16:55.716Z,25.20
2018-07-14T19:19:25.379Z,25.20
2018-07-14T19:22:14.073Z,25.00
2018-07-14T19:24:51.976Z,24.90
2018-07-14T20:11:37.027Z,24.70
2018-07-14T20:17:07.602Z,23.20
2018-07-14T20:19:36.511Z,23.10
2018-07-14T20:34:09.565Z,22.80
2018-07-14T20:36:48.983Z,22.50
2018-07-14T20:39:21.894Z,22.40
2018-07-14T20:41:51.298Z,22.20
2018-07-14T20:47:31.855Z,22.10
2018-07-14T21:00:08.480Z,22.00
2018-07-14T21:02:40.400Z,21.80
2018-07-14T21:05:14.644Z,21.70
2018-07-14T21:07:54.521Z,21.60
2018-07-14T21:10:41.494Z,21.60
